sensor_id;sensor_type;location;lat;lon;timestamp;pressure;altitude;pressure_sealevel;temperature;humidity
13486;BME280;6815;59.336;17.998;2023-04-10T00:00:08;52157.03;;;-145.37;64.55
13486;BME280;6815;59.336;17.998;2023-04-10T00:02:34;52151.03;;;-145.37;64.30
13486;BME280;6815;59.336;17.998;2023-04-10T00:05:04;52163.00;;;-145.37;64.09
13486;BME280;6815;59.336;17.998;2023-04-10T00:07:30;52125.09;;;-145.37;64.23
13486;BME280;6815;59.336;17.998;2023-04-10T00:09:55;52095.16;;;-145.37;63.46
13486;BME280;6815;59.336;17.998;2023-04-10T00:12:21;52141.06;;;-145.37;63.94
13486;BME280;6815;59.336;17.998;2023-04-10T00:14:46;52105.13;;;-145.37;64.53
13486;BME280;6815;59.336;17.998;2023-04-10T00:17:12;52141.06;;;-145.37;64.93
13486;BME280;6815;59.336;17.998;2023-04-10T00:19:37;52111.13;;;-145.37;65.10
13486;BME280;6815;59.336;17.998;2023-04-10T00:22:03;52135.06;;;-145.37;64.82
13486;BME280;6815;59.336;17.998;2023-04-10T00:24:29;52113.09;;;-145.37;64.98
13486;BME280;6815;59.336;17.998;2023-04-10T00:26:54;52121.09;;;-145.37;65.07
13486;BME280;6815;59.336;17.998;2023-04-10T00:29:22;52149.03;;;-145.37;65.41
13486;BME280;6815;59.336;17.998;2023-04-10T00:31:47;52125.09;;;-145.37;64.87
13486;BME280;6815;59.336;17.998;2023-04-10T00:34:13;52159.03;;;-145.37;64.72
13486;BME280;6815;59.336;17.998;2023-04-10T00:36:38;52143.06;;;-145.37;64.72
13486;BME280;6815;59.336;17.998;2023-04-10T00:39:04;52095.16;;;-145.37;64.35
13486;BME280;6815;59.336;17.998;2023-04-10T00:41:32;52141.06;;;-145.37;64.40
13486;BME280;6815;59.336;17.998;2023-04-10T00:43:59;52143.06;;;-145.37;64.73
13486;BME280;6815;59.336;17.998;2023-04-10T00:46:25;52143.06;;;-145.37;65.15
13486;BME280;6815;59.336;17.998;2023-04-10T00:48:52;52109.13;;;-145.37;65.38
13486;BME280;6815;59.336;17.998;2023-04-10T00:51:18;52085.16;;;-145.37;64.96
13486;BME280;6815;59.336;17.998;2023-04-10T00:53:48;52147.03;;;-145.37;65.27
13486;BME280;6815;59.336;17.998;2023-04-10T00:56:18;52155.03;;;-145.37;65.56
13486;BME280;6815;59.336;17.998;2023-04-10T00:58:46;52143.06;;;-145.37;65.58
13486;BME280;6815;59.336;17.998;2023-04-10T01:01:12;52127.09;;;-145.37;64.90
13486;BME280;6815;59.336;17.998;2023-04-10T01:03:39;52155.03;;;-145.37;64.85
13486;BME280;6815;59.336;17.998;2023-04-10T01:22:34;52143.06;;;-145.37;65.90
13486;BME280;6815;59.336;17.998;2023-04-10T01:30:36;52095.16;;;-145.37;65.87
13486;BME280;6815;59.336;17.998;2023-04-10T01:33:02;52149.03;;;-145.37;65.57
13486;BME280;6815;59.336;17.998;2023-04-10T01:35:32;52135.06;;;-145.37;66.15
13486;BME280;6815;59.336;17.998;2023-04-10T01:38:00;52123.09;;;-145.37;65.95
13486;BME280;6815;59.336;17.998;2023-04-10T01:40:28;52115.09;;;-145.37;66.24
13486;BME280;6815;59.336;17.998;2023-04-10T01:42:55;52151.03;;;-145.37;67.02
13486;BME280;6815;59.336;17.998;2023-04-10T01:45:25;52135.06;;;-145.37;66.91
13486;BME280;6815;59.336;17.998;2023-04-10T01:47:52;52131.06;;;-145.37;67.37
13486;BME280;6815;59.336;17.998;2023-04-10T01:50:19;52149.03;;;-145.37;67.71
13486;BME280;6815;59.336;17.998;2023-04-10T01:52:49;52141.06;;;-145.37;68.51
13486;BME280;6815;59.336;17.998;2023-04-10T01:55:16;52147.03;;;-145.37;68.55
13486;BME280;6815;59.336;17.998;2023-04-10T01:57:44;52147.03;;;-145.37;68.48
13486;BME280;6815;59.336;17.998;2023-04-10T02:00:11;52153.03;;;-145.37;68.43
13486;BME280;6815;59.336;17.998;2023-04-10T02:02:36;52129.06;;;-145.37;68.77
13486;BME280;6815;59.336;17.998;2023-04-10T02:05:02;52169.00;;;-145.37;68.66
13486;BME280;6815;59.336;17.998;2023-04-10T02:10:22;52161.03;;;-145.37;70.04
13486;BME280;6815;59.336;17.998;2023-04-10T02:13:00;52137.06;;;-145.37;70.15
13486;BME280;6815;59.336;17.998;2023-04-10T02:15:26;52141.06;;;-145.37;70.08
13486;BME280;6815;59.336;17.998;2023-04-10T02:17:57;52121.09;;;-145.37;70.36
13486;BME280;6815;59.336;17.998;2023-04-10T02:20:24;52133.06;;;-145.37;70.36
13486;BME280;6815;59.336;17.998;2023-04-10T02:22:51;52133.06;;;-145.37;70.02
13486;BME280;6815;59.336;17.998;2023-04-10T02:25:17;52190.97;;;-145.37;70.04
13486;BME280;6815;59.336;17.998;2023-04-10T02:27:43;52135.06;;;-145.37;69.81
13486;BME280;6815;59.336;17.998;2023-04-10T02:30:09;52125.09;;;-145.37;69.97
13486;BME280;6815;59.336;17.998;2023-04-10T02:32:35;52137.06;;;-145.37;69.87
13486;BME280;6815;59.336;17.998;2023-04-10T02:35:01;52139.06;;;-145.37;69.64
13486;BME280;6815;59.336;17.998;2023-04-10T02:37:27;52087.16;;;-145.37;70.11
13486;BME280;6815;59.336;17.998;2023-04-10T02:39:53;52149.03;;;-145.37;70.23
13486;BME280;6815;59.336;17.998;2023-04-10T02:42:22;52165.00;;;-145.37;69.68
13486;BME280;6815;59.336;17.998;2023-04-10T02:44:47;52145.03;;;-145.37;69.60
13486;BME280;6815;59.336;17.998;2023-04-10T02:47:13;52111.13;;;-145.37;69.32
13486;BME280;6815;59.336;17.998;2023-04-10T02:49:40;52135.06;;;-145.37;68.99
13486;BME280;6815;59.336;17.998;2023-04-10T02:52:06;52121.09;;;-145.37;69.24
13486;BME280;6815;59.336;17.998;2023-04-10T02:54:31;52147.03;;;-145.37;69.14
13486;BME280;6815;59.336;17.998;2023-04-10T02:56:57;52105.13;;;-145.37;68.90
13486;BME280;6815;59.336;17.998;2023-04-10T02:59:22;52145.03;;;-145.37;69.18
13486;BME280;6815;59.336;17.998;2023-04-10T03:01:49;52105.13;;;-145.37;69.40
13486;BME280;6815;59.336;17.998;2023-04-10T03:04:16;52119.09;;;-145.37;69.48
13486;BME280;6815;59.336;17.998;2023-04-10T03:06:43;52137.06;;;-145.37;69.27
13486;BME280;6815;59.336;17.998;2023-04-10T03:09:08;52105.13;;;-145.37;69.20
13486;BME280;6815;59.336;17.998;2023-04-10T03:11:34;52075.19;;;-145.37;69.56
13486;BME280;6815;59.336;17.998;2023-04-10T03:13:59;52169.00;;;-145.37;69.70
13486;BME280;6815;59.336;17.998;2023-04-10T03:16:25;52175.00;;;-145.37;69.73
13486;BME280;6815;59.336;17.998;2023-04-10T03:18:51;52149.03;;;-145.37;70.44
13486;BME280;6815;59.336;17.998;2023-04-10T03:21:17;52169.00;;;-145.37;70.97
13486;BME280;6815;59.336;17.998;2023-04-10T03:23:42;52143.06;;;-145.37;70.40
13486;BME280;6815;59.336;17.998;2023-04-10T03:26:08;52125.09;;;-145.37;70.73
13486;BME280;6815;59.336;17.998;2023-04-10T03:28:33;52097.13;;;-145.37;70.96
13486;BME280;6815;59.336;17.998;2023-04-10T03:31:02;52137.06;;;-145.37;71.00
13486;BME280;6815;59.336;17.998;2023-04-10T03:33:27;52135.06;;;-145.37;71.43
13486;BME280;6815;59.336;17.998;2023-04-10T03:35:53;52125.09;;;-145.37;71.31
13486;BME280;6815;59.336;17.998;2023-04-10T03:38:18;52133.06;;;-145.37;71.37
13486;BME280;6815;59.336;17.998;2023-04-10T03:40:45;52079.19;;;-145.37;71.73
13486;BME280;6815;59.336;17.998;2023-04-10T03:43:11;52141.06;;;-145.37;71.75
13486;BME280;6815;59.336;17.998;2023-04-10T03:45:37;52125.09;;;-145.37;72.42
13486;BME280;6815;59.336;17.998;2023-04-10T03:48:02;52159.03;;;-145.37;71.82
13486;BME280;6815;59.336;17.998;2023-04-10T03:50:28;52125.09;;;-145.37;71.72
13486;BME280;6815;59.336;17.998;2023-04-10T03:52:53;52153.03;;;-145.37;71.95
13486;BME280;6815;59.336;17.998;2023-04-10T03:55:20;52133.06;;;-145.37;71.47
13486;BME280;6815;59.336;17.998;2023-04-10T03:57:47;52107.13;;;-145.37;71.82
13486;BME280;6815;59.336;17.998;2023-04-10T04:00:13;52127.09;;;-145.37;71.63
13486;BME280;6815;59.336;17.998;2023-04-10T04:02:40;52127.09;;;-145.37;71.22
13486;BME280;6815;59.336;17.998;2023-04-10T04:05:06;52137.06;;;-145.37;71.53
13486;BME280;6815;59.336;17.998;2023-04-10T04:07:31;52101.13;;;-145.37;71.63
13486;BME280;6815;59.336;17.998;2023-04-10T04:09:57;52157.03;;;-145.37;71.42
13486;BME280;6815;59.336;17.998;2023-04-10T04:12:25;52123.09;;;-145.37;71.58
13486;BME280;6815;59.336;17.998;2023-04-10T04:14:51;52151.03;;;-145.37;71.33
13486;BME280;6815;59.336;17.998;2023-04-10T04:17:17;52137.06;;;-145.37;71.45
13486;BME280;6815;59.336;17.998;2023-04-10T04:19:43;52149.03;;;-145.37;71.26
13486;BME280;6815;59.336;17.998;2023-04-10T04:22:09;52139.06;;;-145.37;71.15
13486;BME280;6815;59.336;17.998;2023-04-10T04:24:35;52133.06;;;-145.37;70.86
13486;BME280;6815;59.336;17.998;2023-04-10T04:27:00;52159.03;;;-145.37;70.79
13486;BME280;6815;59.336;17.998;2023-04-10T04:29:27;52135.06;;;-145.37;71.00
13486;BME280;6815;59.336;17.998;2023-04-10T04:31:52;52157.03;;;-145.37;71.16
13486;BME280;6815;59.336;17.998;2023-04-10T04:34:17;52147.03;;;-145.37;71.23
13486;BME280;6815;59.336;17.998;2023-04-10T04:36:43;52145.03;;;-145.37;71.19
13486;BME280;6815;59.336;17.998;2023-04-10T04:39:08;52135.06;;;-145.37;71.73
13486;BME280;6815;59.336;17.998;2023-04-10T04:41:34;52089.16;;;-145.37;71.82
13486;BME280;6815;59.336;17.998;2023-04-10T04:44:03;52133.06;;;-145.37;72.66
13486;BME280;6815;59.336;17.998;2023-04-10T04:46:29;52075.19;;;-145.37;72.98
13486;BME280;6815;59.336;17.998;2023-04-10T04:48:54;52149.03;;;-145.37;73.19
13486;BME280;6815;59.336;17.998;2023-04-10T04:51:20;52129.06;;;-145.37;72.57
13486;BME280;6815;59.336;17.998;2023-04-10T04:53:45;52125.09;;;-145.37;72.56
13486;BME280;6815;59.336;17.998;2023-04-10T04:56:11;52119.09;;;-145.37;72.56
13486;BME280;6815;59.336;17.998;2023-04-10T04:58:36;52131.06;;;-145.37;72.52
13486;BME280;6815;59.336;17.998;2023-04-10T05:01:02;52135.06;;;-145.37;72.20
13486;BME280;6815;59.336;17.998;2023-04-10T05:03:28;52123.09;;;-145.37;72.33
13486;BME280;6815;59.336;17.998;2023-04-10T05:05:54;52121.09;;;-145.37;72.37
13486;BME280;6815;59.336;17.998;2023-04-10T05:08:20;52143.06;;;-145.37;72.20
13486;BME280;6815;59.336;17.998;2023-04-10T05:10:45;52163.00;;;-145.37;72.14
13486;BME280;6815;59.336;17.998;2023-04-10T05:13:11;52135.06;;;-145.37;72.07
13486;BME280;6815;59.336;17.998;2023-04-10T05:15:37;52109.13;;;-145.37;71.86
13486;BME280;6815;59.336;17.998;2023-04-10T05:18:02;52121.09;;;-145.37;71.71
13486;BME280;6815;59.336;17.998;2023-04-10T05:20:27;52137.06;;;-145.37;71.78
13486;BME280;6815;59.336;17.998;2023-04-10T05:22:53;52123.09;;;-145.37;71.77
13486;BME280;6815;59.336;17.998;2023-04-10T05:25:18;52155.03;;;-145.37;71.60
13486;BME280;6815;59.336;17.998;2023-04-10T05:27:45;52133.06;;;-145.37;71.78
13486;BME280;6815;59.336;17.998;2023-04-10T05:30:11;52119.09;;;-145.37;71.88
13486;BME280;6815;59.336;17.998;2023-04-10T05:32:38;52151.03;;;-145.37;72.04
13486;BME280;6815;59.336;17.998;2023-04-10T05:35:03;52177.00;;;-145.37;71.88
13486;BME280;6815;59.336;17.998;2023-04-10T05:37:30;52125.09;;;-145.37;71.76
13486;BME280;6815;59.336;17.998;2023-04-10T05:39:56;52129.06;;;-145.37;72.06
13486;BME280;6815;59.336;17.998;2023-04-10T05:42:23;52113.09;;;-145.37;72.52
13486;BME280;6815;59.336;17.998;2023-04-10T05:44:48;52145.03;;;-145.37;71.75
13486;BME280;6815;59.336;17.998;2023-04-10T05:47:15;52097.13;;;-145.37;71.38
13486;BME280;6815;59.336;17.998;2023-04-10T05:49:41;52109.13;;;-145.37;70.98
13486;BME280;6815;59.336;17.998;2023-04-10T05:52:06;52099.13;;;-145.37;70.55
13486;BME280;6815;59.336;17.998;2023-04-10T05:54:32;52173.00;;;-145.37;70.66
13486;BME280;6815;59.336;17.998;2023-04-10T05:56:57;52111.13;;;-145.37;70.28
13486;BME280;6815;59.336;17.998;2023-04-10T05:59:23;52184.97;;;-145.37;70.02
13486;BME280;6815;59.336;17.998;2023-04-10T06:01:49;52133.06;;;-145.37;70.14
13486;BME280;6815;59.336;17.998;2023-04-10T06:04:15;52133.06;;;-145.37;70.00
13486;BME280;6815;59.336;17.998;2023-04-10T06:06:40;52123.09;;;-145.37;70.09
13486;BME280;6815;59.336;17.998;2023-04-10T06:09:06;52129.06;;;-145.37;70.12
13486;BME280;6815;59.336;17.998;2023-04-10T06:11:32;52109.13;;;-145.37;70.03
13486;BME280;6815;59.336;17.998;2023-04-10T06:13:57;52157.03;;;-145.37;69.96
13486;BME280;6815;59.336;17.998;2023-04-10T06:16:23;52139.06;;;-145.37;70.01
13486;BME280;6815;59.336;17.998;2023-04-10T06:18:48;52127.09;;;-145.37;70.16
13486;BME280;6815;59.336;17.998;2023-04-10T06:21:16;52143.06;;;-145.37;69.22
13486;BME280;6815;59.336;17.998;2023-04-10T06:23:42;52097.13;;;-145.37;68.75
13486;BME280;6815;59.336;17.998;2023-04-10T06:26:07;52151.03;;;-145.37;68.15
13486;BME280;6815;59.336;17.998;2023-04-10T06:28:33;52169.00;;;-145.37;67.45
13486;BME280;6815;59.336;17.998;2023-04-10T06:30:59;52137.06;;;-145.37;66.57
13486;BME280;6815;59.336;17.998;2023-04-10T06:33:27;52149.03;;;-145.37;66.49
13486;BME280;6815;59.336;17.998;2023-04-10T06:35:52;52167.00;;;-145.37;65.66
13486;BME280;6815;59.336;17.998;2023-04-10T06:38:18;52133.06;;;-145.37;65.62
13486;BME280;6815;59.336;17.998;2023-04-10T06:40:45;52153.03;;;-145.37;64.91
13486;BME280;6815;59.336;17.998;2023-04-10T06:43:10;52159.03;;;-145.37;64.91
13486;BME280;6815;59.336;17.998;2023-04-10T06:45:36;52157.03;;;-145.37;64.20
13486;BME280;6815;59.336;17.998;2023-04-10T06:48:01;52157.03;;;-145.37;64.33
13486;BME280;6815;59.336;17.998;2023-04-10T06:50:26;52135.06;;;-145.37;64.28
13486;BME280;6815;59.336;17.998;2023-04-10T06:52:52;52119.09;;;-145.37;64.15
13486;BME280;6815;59.336;17.998;2023-04-10T06:55:20;52145.03;;;-145.37;64.53
13486;BME280;6815;59.336;17.998;2023-04-10T06:57:45;52121.09;;;-145.37;63.14
13486;BME280;6815;59.336;17.998;2023-04-10T07:00:11;52157.03;;;-145.37;63.35
13486;BME280;6815;59.336;17.998;2023-04-10T07:02:37;52125.09;;;-145.37;63.28
13486;BME280;6815;59.336;17.998;2023-04-10T07:05:03;52153.03;;;-145.37;59.88
13486;BME280;6815;59.336;17.998;2023-04-10T07:07:28;52145.03;;;-145.37;58.58
13486;BME280;6815;59.336;17.998;2023-04-10T07:09:54;52161.03;;;-145.37;58.34
13486;BME280;6815;59.336;17.998;2023-04-10T07:12:22;52200.94;;;-145.37;57.75
13486;BME280;6815;59.336;17.998;2023-04-10T07:14:47;52133.06;;;-145.37;56.36
13486;BME280;6815;59.336;17.998;2023-04-10T07:17:13;52186.97;;;-145.37;55.79
13486;BME280;6815;59.336;17.998;2023-04-10T07:19:38;52151.03;;;-145.37;56.58
13486;BME280;6815;59.336;17.998;2023-04-10T07:22:04;52202.94;;;-145.37;55.96
13486;BME280;6815;59.336;17.998;2023-04-10T07:24:30;52163.00;;;-145.37;55.47
13486;BME280;6815;59.336;17.998;2023-04-10T07:26:56;52202.94;;;-145.37;55.02
13486;BME280;6815;59.336;17.998;2023-04-10T07:29:22;52161.03;;;-145.37;55.08
13486;BME280;6815;59.336;17.998;2023-04-10T07:31:48;52109.13;;;-145.37;54.35
13486;BME280;6815;59.336;17.998;2023-04-10T07:34:13;52141.06;;;-145.37;54.45
13486;BME280;6815;59.336;17.998;2023-04-10T07:36:39;52109.13;;;-145.37;54.14
13486;BME280;6815;59.336;17.998;2023-04-10T07:39:04;52141.06;;;-145.37;53.97
13486;BME280;6815;59.336;17.998;2023-04-10T07:41:30;52155.03;;;-145.37;53.11
13486;BME280;6815;59.336;17.998;2023-04-10T07:43:56;52180.97;;;-145.37;52.91
13486;BME280;6815;59.336;17.998;2023-04-10T07:46:21;52145.03;;;-145.37;52.44
13486;BME280;6815;59.336;17.998;2023-04-10T07:48:47;52159.03;;;-145.37;52.42
13486;BME280;6815;59.336;17.998;2023-04-10T07:51:13;52145.03;;;-145.37;51.10
13486;BME280;6815;59.336;17.998;2023-04-10T07:53:39;52149.03;;;-145.37;50.32
13486;BME280;6815;59.336;17.998;2023-04-10T07:56:05;52155.03;;;-145.37;51.08
13486;BME280;6815;59.336;17.998;2023-04-10T07:58:31;52115.09;;;-145.37;49.99
13486;BME280;6815;59.336;17.998;2023-04-10T08:00:57;52155.03;;;-145.37;49.26
13486;BME280;6815;59.336;17.998;2023-04-10T08:03:22;52163.00;;;-145.37;50.19
13486;BME280;6815;59.336;17.998;2023-04-10T08:05:48;52171.00;;;-145.37;48.08
13486;BME280;6815;59.336;17.998;2023-04-10T08:08:14;52151.03;;;-145.37;48.05
13486;BME280;6815;59.336;17.998;2023-04-10T08:10:40;52155.03;;;-145.37;47.93
13486;BME280;6815;59.336;17.998;2023-04-10T08:13:05;52153.03;;;-145.37;48.86
13486;BME280;6815;59.336;17.998;2023-04-10T08:15:31;52161.03;;;-145.37;47.92
13486;BME280;6815;59.336;17.998;2023-04-10T08:17:57;52123.09;;;-145.37;48.61
13486;BME280;6815;59.336;17.998;2023-04-10T08:20:22;52167.00;;;-145.37;48.23
13486;BME280;6815;59.336;17.998;2023-04-10T08:22:47;52093.16;;;-145.37;48.27
13486;BME280;6815;59.336;17.998;2023-04-10T08:25:13;52149.03;;;-145.37;47.93
13486;BME280;6815;59.336;17.998;2023-04-10T08:27:39;52159.03;;;-145.37;47.26
13486;BME280;6815;59.336;17.998;2023-04-10T08:30:05;52169.00;;;-145.37;47.56
13486;BME280;6815;59.336;17.998;2023-04-10T08:32:30;52177.00;;;-145.37;46.72
13486;BME280;6815;59.336;17.998;2023-04-10T08:34:56;52149.03;;;-145.37;46.53
13486;BME280;6815;59.336;17.998;2023-04-10T08:37:21;52159.03;;;-145.37;45.62
13486;BME280;6815;59.336;17.998;2023-04-10T08:39:47;52163.00;;;-145.37;44.61
13486;BME280;6815;59.336;17.998;2023-04-10T08:42:12;52139.06;;;-145.37;44.06
13486;BME280;6815;59.336;17.998;2023-04-10T08:44:38;52153.03;;;-145.37;44.16
13486;BME280;6815;59.336;17.998;2023-04-10T08:47:07;52198.94;;;-145.37;43.36
13486;BME280;6815;59.336;17.998;2023-04-10T08:52:33;52167.00;;;-145.37;43.39
13486;BME280;6815;59.336;17.998;2023-04-10T08:55:05;52143.06;;;-145.37;43.80
13486;BME280;6815;59.336;17.998;2023-04-10T08:57:32;52171.00;;;-145.37;43.92
13486;BME280;6815;59.336;17.998;2023-04-10T08:59:58;52121.09;;;-145.37;43.89
13486;BME280;6815;59.336;17.998;2023-04-10T09:02:25;52141.06;;;-145.37;43.98
13486;BME280;6815;59.336;17.998;2023-04-10T09:04:52;52155.03;;;-145.37;43.44
13486;BME280;6815;59.336;17.998;2023-04-10T09:07:20;52135.06;;;-145.37;43.99
13486;BME280;6815;59.336;17.998;2023-04-10T09:09:47;52153.03;;;-145.37;43.91
13486;BME280;6815;59.336;17.998;2023-04-10T09:12:13;52200.94;;;-145.37;42.86
13486;BME280;6815;59.336;17.998;2023-04-10T09:14:40;52171.00;;;-145.37;42.72
13486;BME280;6815;59.336;17.998;2023-04-10T09:19:39;52157.03;;;-145.37;40.38
13486;BME280;6815;59.336;17.998;2023-04-10T09:22:05;52135.06;;;-145.37;40.02
13486;BME280;6815;59.336;17.998;2023-04-10T09:24:34;52133.06;;;-145.37;40.20
13486;BME280;6815;59.336;17.998;2023-04-10T09:27:01;52173.00;;;-145.37;40.96
13486;BME280;6815;59.336;17.998;2023-04-10T09:29:44;52180.97;;;-145.37;39.61
13486;BME280;6815;59.336;17.998;2023-04-10T09:32:12;52133.06;;;-145.37;38.81
13486;BME280;6815;59.336;17.998;2023-04-10T09:34:52;52163.00;;;-145.37;40.04
13486;BME280;6815;59.336;17.998;2023-04-10T09:37:18;52171.00;;;-145.37;39.89
13486;BME280;6815;59.336;17.998;2023-04-10T09:39:45;52173.00;;;-145.37;40.34
13486;BME280;6815;59.336;17.998;2023-04-10T09:42:10;52175.00;;;-145.37;40.16
13486;BME280;6815;59.336;17.998;2023-04-10T09:44:38;52143.06;;;-145.37;38.83
13486;BME280;6815;59.336;17.998;2023-04-10T09:49:46;52159.03;;;-145.37;39.82
13486;BME280;6815;59.336;17.998;2023-04-10T09:52:22;52157.03;;;-145.37;40.03
13486;BME280;6815;59.336;17.998;2023-04-10T09:54:50;52188.97;;;-145.37;41.40
13486;BME280;6815;59.336;17.998;2023-04-10T09:57:18;52190.97;;;-145.37;41.35
13486;BME280;6815;59.336;17.998;2023-04-10T09:59:51;52141.06;;;-145.37;39.82
13486;BME280;6815;59.336;17.998;2023-04-10T10:02:20;52173.00;;;-145.37;40.65
13486;BME280;6815;59.336;17.998;2023-04-10T10:04:48;52171.00;;;-145.37;41.42
13486;BME280;6815;59.336;17.998;2023-04-10T10:07:15;52149.03;;;-145.37;41.27
13486;BME280;6815;59.336;17.998;2023-04-10T10:09:43;52180.97;;;-145.37;41.70
13486;BME280;6815;59.336;17.998;2023-04-10T10:12:10;52159.03;;;-145.37;41.27
13486;BME280;6815;59.336;17.998;2023-04-10T10:17:44;52147.03;;;-145.37;40.63
13486;BME280;6815;59.336;17.998;2023-04-10T10:20:17;52178.97;;;-145.37;39.90
13486;BME280;6815;59.336;17.998;2023-04-10T10:22:44;52153.03;;;-145.37;39.51
13486;BME280;6815;59.336;17.998;2023-04-10T10:25:12;52173.00;;;-145.37;39.72
13486;BME280;6815;59.336;17.998;2023-04-10T10:27:38;52159.03;;;-145.37;40.15
13486;BME280;6815;59.336;17.998;2023-04-10T10:30:06;52159.03;;;-145.37;40.18
13486;BME280;6815;59.336;17.998;2023-04-10T10:32:33;52167.00;;;-145.37;40.02
13486;BME280;6815;59.336;17.998;2023-04-10T10:34:59;52163.00;;;-145.37;39.18
13486;BME280;6815;59.336;17.998;2023-04-10T10:37:28;52143.06;;;-145.37;39.47
13486;BME280;6815;59.336;17.998;2023-04-10T10:40:03;52141.06;;;-145.37;39.89
13486;BME280;6815;59.336;17.998;2023-04-10T10:42:39;52173.00;;;-145.37;39.71
13486;BME280;6815;59.336;17.998;2023-04-10T10:45:12;52149.03;;;-145.37;39.61
13486;BME280;6815;59.336;17.998;2023-04-10T10:47:53;52147.03;;;-145.37;38.76
13486;BME280;6815;59.336;17.998;2023-04-10T10:50:19;52141.06;;;-145.37;38.99
13486;BME280;6815;59.336;17.998;2023-04-10T10:52:49;52171.00;;;-145.37;39.12
13486;BME280;6815;59.336;17.998;2023-04-10T10:57:50;52151.03;;;-145.37;38.58
13486;BME280;6815;59.336;17.998;2023-04-10T11:00:20;52149.03;;;-145.37;38.14
13486;BME280;6815;59.336;17.998;2023-04-10T11:08:36;52171.00;;;-145.37;36.05
13486;BME280;6815;59.336;17.998;2023-04-10T11:13:41;52178.97;;;-145.37;37.30
13486;BME280;6815;59.336;17.998;2023-04-10T11:16:08;52153.03;;;-145.37;37.42
13486;BME280;6815;59.336;17.998;2023-04-10T11:21:10;52161.03;;;-145.37;36.26
13486;BME280;6815;59.336;17.998;2023-04-10T11:29:05;52171.00;;;-145.37;36.31
13486;BME280;6815;59.336;17.998;2023-04-10T11:31:33;52141.06;;;-145.37;35.76
13486;BME280;6815;59.336;17.998;2023-04-10T11:34:03;52171.00;;;-145.37;35.21
13486;BME280;6815;59.336;17.998;2023-04-10T11:36:29;52161.03;;;-145.37;35.35
13486;BME280;6815;59.336;17.998;2023-04-10T11:39:03;52151.03;;;-145.37;34.73
13486;BME280;6815;59.336;17.998;2023-04-10T11:41:42;52151.03;;;-145.37;35.01
13486;BME280;6815;59.336;17.998;2023-04-10T11:44:09;52103.13;;;-145.37;35.47
13486;BME280;6815;59.336;17.998;2023-04-10T11:46:40;52113.09;;;-145.37;35.65
13486;BME280;6815;59.336;17.998;2023-04-10T11:49:07;52171.00;;;-145.37;35.84
13486;BME280;6815;59.336;17.998;2023-04-10T11:51:37;52169.00;;;-145.37;35.84
13486;BME280;6815;59.336;17.998;2023-04-10T11:54:06;52123.09;;;-145.37;36.03
13486;BME280;6815;59.336;17.998;2023-04-10T11:56:32;52149.03;;;-145.37;35.91
13486;BME280;6815;59.336;17.998;2023-04-10T11:58:58;52139.06;;;-145.37;35.73
13486;BME280;6815;59.336;17.998;2023-04-10T12:01:23;52147.03;;;-145.37;36.19
13486;BME280;6815;59.336;17.998;2023-04-10T12:03:49;52109.13;;;-145.37;36.65
13486;BME280;6815;59.336;17.998;2023-04-10T12:06:14;52149.03;;;-145.37;36.71
13486;BME280;6815;59.336;17.998;2023-04-10T12:08:44;52135.06;;;-145.37;36.43
13486;BME280;6815;59.336;17.998;2023-04-10T12:11:12;52147.03;;;-145.37;36.08
13486;BME280;6815;59.336;17.998;2023-04-10T12:13:38;52135.06;;;-145.37;36.17
13486;BME280;6815;59.336;17.998;2023-04-10T12:16:06;52163.00;;;-145.37;36.30
13486;BME280;6815;59.336;17.998;2023-04-10T12:18:32;52147.03;;;-145.37;36.51
13486;BME280;6815;59.336;17.998;2023-04-10T12:20:58;52145.03;;;-145.37;36.71
13486;BME280;6815;59.336;17.998;2023-04-10T12:23:28;52159.03;;;-145.37;36.87
13486;BME280;6815;59.336;17.998;2023-04-10T12:26:10;52151.03;;;-145.37;36.88
13486;BME280;6815;59.336;17.998;2023-04-10T12:28:38;52188.97;;;-145.37;36.65
13486;BME280;6815;59.336;17.998;2023-04-10T12:31:04;52129.06;;;-145.37;36.45
13486;BME280;6815;59.336;17.998;2023-04-10T12:33:30;52141.06;;;-145.37;36.70
13486;BME280;6815;59.336;17.998;2023-04-10T12:35:55;52145.03;;;-145.37;36.57
13486;BME280;6815;59.336;17.998;2023-04-10T12:38:35;52173.00;;;-145.37;36.93
13486;BME280;6815;59.336;17.998;2023-04-10T12:41:02;52161.03;;;-145.37;36.57
13486;BME280;6815;59.336;17.998;2023-04-10T12:43:32;52157.03;;;-145.37;36.84
13486;BME280;6815;59.336;17.998;2023-04-10T12:45:58;52143.06;;;-145.37;37.34
13486;BME280;6815;59.336;17.998;2023-04-10T12:48:23;52190.97;;;-145.37;37.29
13486;BME280;6815;59.336;17.998;2023-04-10T12:50:52;52151.03;;;-145.37;38.10
13486;BME280;6815;59.336;17.998;2023-04-10T12:53:30;52190.97;;;-145.37;38.13
13486;BME280;6815;59.336;17.998;2023-04-10T12:56:03;52143.06;;;-145.37;38.05
13486;BME280;6815;59.336;17.998;2023-04-10T12:58:37;52151.03;;;-145.37;38.21
13486;BME280;6815;59.336;17.998;2023-04-10T13:01:07;52175.00;;;-145.37;37.88
13486;BME280;6815;59.336;17.998;2023-04-10T13:03:38;52151.03;;;-145.37;37.91
13486;BME280;6815;59.336;17.998;2023-04-10T13:06:07;52133.06;;;-145.37;38.38
13486;BME280;6815;59.336;17.998;2023-04-10T13:08:34;52173.00;;;-145.37;38.76
13486;BME280;6815;59.336;17.998;2023-04-10T13:11:01;52151.03;;;-145.37;38.42
13486;BME280;6815;59.336;17.998;2023-04-10T13:14:00;52123.09;;;-145.37;38.10
13486;BME280;6815;59.336;17.998;2023-04-10T13:19:05;52145.03;;;-145.37;38.07
13486;BME280;6815;59.336;17.998;2023-04-10T13:21:32;52151.03;;;-145.37;38.02
13486;BME280;6815;59.336;17.998;2023-04-10T13:23:58;52151.03;;;-145.37;37.62
13486;BME280;6815;59.336;17.998;2023-04-10T13:26:28;52192.97;;;-145.37;37.50
13486;BME280;6815;59.336;17.998;2023-04-10T13:28:57;52125.09;;;-145.37;37.55
13486;BME280;6815;59.336;17.998;2023-04-10T13:31:23;52165.00;;;-145.37;37.74
13486;BME280;6815;59.336;17.998;2023-04-10T13:33:54;52137.06;;;-145.37;37.15
13486;BME280;6815;59.336;17.998;2023-04-10T13:36:46;52177.00;;;-145.37;37.26